sensor_id;sensor_type;location;lat;lon;timestamp;P1;durP1;ratioP1;P2;durP2;ratioP2
29200;SDS011;16244;51.956;12.980;2023-06-05T00:00:07;5.37;;;4.83;;
29200;SDS011;16244;51.956;12.980;2023-06-05T00:02:35;6.30;;;5.47;;
29200;SDS011;16244;51.956;12.980;2023-06-05T00:05:05;9.10;;;6.30;;
29200;SDS011;16244;51.956;12.980;2023-06-05T00:07:34;10.23;;;7.47;;
29200;SDS011;16244;51.956;12.980;2023-06-05T00:10:05;11.17;;;7.30;;
29200;SDS011;16244;51.956;12.980;2023-06-05T00:12:33;12.60;;;6.07;;
29200;SDS011;16244;51.956;12.980;2023-06-05T00:15:01;7.23;;;6.57;;
29200;SDS011;16244;51.956;12.980;2023-06-05T00:17:30;7.20;;;5.70;;
29200;SDS011;16244;51.956;12.980;2023-06-05T00:20:05;8.30;;;5.90;;
29200;SDS011;16244;51.956;12.980;2023-06-05T00:22:35;12.73;;;6.77;;
29200;SDS011;16244;51.956;12.980;2023-06-05T00:25:03;17.47;;;8.03;;
29200;SDS011;16244;51.956;12.980;2023-06-05T00:27:31;6.90;;;5.90;;
29200;SDS011;16244;51.956;12.980;2023-06-05T00:29:59;8.60;;;6.53;;
29200;SDS011;16244;51.956;12.980;2023-06-05T00:32:27;10.90;;;5.20;;
29200;SDS011;16244;51.956;12.980;2023-06-05T00:34:55;6.50;;;5.83;;
29200;SDS011;16244;51.956;12.980;2023-06-05T00:37:24;6.47;;;5.77;;
29200;SDS011;16244;51.956;12.980;2023-06-05T00:39:53;8.40;;;6.40;;
29200;SDS011;16244;51.956;12.980;2023-06-05T00:42:21;11.57;;;6.70;;
29200;SDS011;16244;51.956;12.980;2023-06-05T00:44:49;10.00;;;7.87;;
29200;SDS011;16244;51.956;12.980;2023-06-05T00:47:17;11.00;;;7.70;;
29200;SDS011;16244;51.956;12.980;2023-06-05T00:49:45;9.40;;;7.03;;
29200;SDS011;16244;51.956;12.980;2023-06-05T00:52:12;10.77;;;7.03;;
29200;SDS011;16244;51.956;12.980;2023-06-05T00:54:42;15.20;;;7.77;;
29200;SDS011;16244;51.956;12.980;2023-06-05T00:57:11;12.93;;;7.87;;
29200;SDS011;16244;51.956;12.980;2023-06-05T00:59:38;13.97;;;7.30;;
29200;SDS011;16244;51.956;12.980;2023-06-05T01:02:10;10.60;;;6.80;;
29200;SDS011;16244;51.956;12.980;2023-06-05T01:04:39;13.00;;;6.43;;
29200;SDS011;16244;51.956;12.980;2023-06-05T01:07:09;10.23;;;6.70;;
29200;SDS011;16244;51.956;12.980;2023-06-05T01:09:40;13.77;;;6.50;;
29200;SDS011;16244;51.956;12.980;2023-06-05T01:12:11;8.80;;;6.57;;
29200;SDS011;16244;51.956;12.980;2023-06-05T01:14:43;7.73;;;5.80;;
29200;SDS011;16244;51.956;12.980;2023-06-05T01:17:12;11.93;;;6.50;;
29200;SDS011;16244;51.956;12.980;2023-06-05T01:19:43;7.90;;;6.33;;
29200;SDS011;16244;51.956;12.980;2023-06-05T01:22:11;9.23;;;6.50;;
29200;SDS011;16244;51.956;12.980;2023-06-05T01:24:41;7.90;;;5.73;;
29200;SDS011;16244;51.956;12.980;2023-06-05T01:27:11;5.90;;;5.33;;
29200;SDS011;16244;51.956;12.980;2023-06-05T01:29:45;9.90;;;6.63;;
29200;SDS011;16244;51.956;12.980;2023-06-05T01:32:16;7.70;;;5.87;;
29200;SDS011;16244;51.956;12.980;2023-06-05T01:34:47;10.10;;;7.20;;
29200;SDS011;16244;51.956;12.980;2023-06-05T01:37:15;12.47;;;7.27;;
29200;SDS011;16244;51.956;12.980;2023-06-05T01:39:46;12.27;;;7.87;;
29200;SDS011;16244;51.956;12.980;2023-06-05T01:42:14;14.23;;;8.70;;
29200;SDS011;16244;51.956;12.980;2023-06-05T01:44:42;10.40;;;6.80;;
29200;SDS011;16244;51.956;12.980;2023-06-05T01:47:11;13.03;;;7.70;;
29200;SDS011;16244;51.956;12.980;2023-06-05T01:49:39;9.70;;;7.33;;
29200;SDS011;16244;51.956;12.980;2023-06-05T01:52:07;13.40;;;7.40;;
29200;SDS011;16244;51.956;12.980;2023-06-05T01:54:35;30.43;;;7.77;;
29200;SDS011;16244;51.956;12.980;2023-06-05T01:57:06;14.87;;;6.73;;
29200;SDS011;16244;51.956;12.980;2023-06-05T01:59:35;17.53;;;7.53;;
29200;SDS011;16244;51.956;12.980;2023-06-05T02:02:02;7.30;;;6.57;;
29200;SDS011;16244;51.956;12.980;2023-06-05T02:04:30;8.73;;;6.97;;
29200;SDS011;16244;51.956;12.980;2023-06-05T02:06:58;11.13;;;7.30;;
29200;SDS011;16244;51.956;12.980;2023-06-05T02:09:29;10.77;;;6.27;;
29200;SDS011;16244;51.956;12.980;2023-06-05T02:11:59;8.57;;;6.30;;
29200;SDS011;16244;51.956;12.980;2023-06-05T02:14:31;9.80;;;7.17;;
29200;SDS011;16244;51.956;12.980;2023-06-05T02:17:01;10.63;;;5.80;;
29200;SDS011;16244;51.956;12.980;2023-06-05T02:19:30;11.67;;;6.10;;
29200;SDS011;16244;51.956;12.980;2023-06-05T02:21:58;8.43;;;5.70;;
29200;SDS011;16244;51.956;12.980;2023-06-05T02:24:26;8.87;;;6.43;;
29200;SDS011;16244;51.956;12.980;2023-06-05T02:26:54;10.20;;;6.37;;
29200;SDS011;16244;51.956;12.980;2023-06-05T02:29:22;6.37;;;5.77;;
29200;SDS011;16244;51.956;12.980;2023-06-05T02:31:52;8.30;;;7.00;;
29200;SDS011;16244;51.956;12.980;2023-06-05T02:34:19;8.03;;;6.03;;
29200;SDS011;16244;51.956;12.980;2023-06-05T02:36:48;22.47;;;7.47;;
29200;SDS011;16244;51.956;12.980;2023-06-05T02:39:16;7.30;;;5.87;;
29200;SDS011;16244;51.956;12.980;2023-06-05T02:41:43;10.60;;;5.77;;
29200;SDS011;16244;51.956;12.980;2023-06-05T02:44:11;9.93;;;7.20;;
29200;SDS011;16244;51.956;12.980;2023-06-05T02:46:39;14.53;;;7.23;;
29200;SDS011;16244;51.956;12.980;2023-06-05T02:49:09;11.93;;;7.23;;
29200;SDS011;16244;51.956;12.980;2023-06-05T02:51:36;11.23;;;7.43;;
29200;SDS011;16244;51.956;12.980;2023-06-05T02:54:04;6.17;;;5.70;;
29200;SDS011;16244;51.956;12.980;2023-06-05T02:56:33;6.03;;;5.27;;
29200;SDS011;16244;51.956;12.980;2023-06-05T02:59:01;7.53;;;5.90;;
29200;SDS011;16244;51.956;12.980;2023-06-05T03:01:29;11.70;;;5.37;;
29200;SDS011;16244;51.956;12.980;2023-06-05T03:04:00;8.00;;;5.60;;
29200;SDS011;16244;51.956;12.980;2023-06-05T03:06:30;6.80;;;4.37;;
29200;SDS011;16244;51.956;12.980;2023-06-05T03:08:59;6.93;;;5.37;;
29200;SDS011;16244;51.956;12.980;2023-06-05T03:11:27;9.47;;;5.23;;
29200;SDS011;16244;51.956;12.980;2023-06-05T03:13:55;7.93;;;5.80;;
29200;SDS011;16244;51.956;12.980;2023-06-05T03:16:23;5.67;;;5.17;;
29200;SDS011;16244;51.956;12.980;2023-06-05T03:19:00;9.80;;;7.10;;
29200;SDS011;16244;51.956;12.980;2023-06-05T03:21:30;8.90;;;6.67;;
29200;SDS011;16244;51.956;12.980;2023-06-05T03:23:57;7.07;;;5.20;;
29200;SDS011;16244;51.956;12.980;2023-06-05T03:26:25;6.53;;;5.10;;
29200;SDS011;16244;51.956;12.980;2023-06-05T03:28:54;11.10;;;5.30;;
29200;SDS011;16244;51.956;12.980;2023-06-05T03:31:22;11.43;;;5.60;;
29200;SDS011;16244;51.956;12.980;2023-06-05T03:33:50;8.10;;;5.60;;
29200;SDS011;16244;51.956;12.980;2023-06-05T03:36:18;8.07;;;5.50;;
29200;SDS011;16244;51.956;12.980;2023-06-05T03:38:47;8.00;;;5.50;;
29200;SDS011;16244;51.956;12.980;2023-06-05T03:41:15;5.50;;;4.90;;
29200;SDS011;16244;51.956;12.980;2023-06-05T03:43:43;4.90;;;4.40;;
29200;SDS011;16244;51.956;12.980;2023-06-05T03:46:12;6.10;;;5.70;;
29200;SDS011;16244;51.956;12.980;2023-06-05T03:48:44;5.83;;;5.30;;
29200;SDS011;16244;51.956;12.980;2023-06-05T03:51:12;7.27;;;5.60;;
29200;SDS011;16244;51.956;12.980;2023-06-05T03:53:44;8.13;;;5.03;;
29200;SDS011;16244;51.956;12.980;2023-06-05T03:56:13;10.70;;;5.70;;
29200;SDS011;16244;51.956;12.980;2023-06-05T03:58:41;6.17;;;4.93;;
29200;SDS011;16244;51.956;12.980;2023-06-05T04:01:11;4.50;;;4.10;;
29200;SDS011;16244;51.956;12.980;2023-06-05T04:03:39;6.70;;;5.20;;
29200;SDS011;16244;51.956;12.980;2023-06-05T04:06:07;8.80;;;5.43;;
29200;SDS011;16244;51.956;12.980;2023-06-05T04:08:36;5.03;;;3.93;;
29200;SDS011;16244;51.956;12.980;2023-06-05T04:11:04;8.33;;;5.47;;
29200;SDS011;16244;51.956;12.980;2023-06-05T04:13:34;6.20;;;4.40;;
29200;SDS011;16244;51.956;12.980;2023-06-05T04:16:02;6.83;;;4.13;;
29200;SDS011;16244;51.956;12.980;2023-06-05T04:18:31;5.90;;;5.37;;
29200;SDS011;16244;51.956;12.980;2023-06-05T04:21:02;8.10;;;6.43;;
29200;SDS011;16244;51.956;12.980;2023-06-05T04:23:30;5.20;;;4.80;;
29200;SDS011;16244;51.956;12.980;2023-06-05T04:25:57;6.23;;;4.07;;
29200;SDS011;16244;51.956;12.980;2023-06-05T04:28:25;7.23;;;5.47;;
29200;SDS011;16244;51.956;12.980;2023-06-05T04:30:55;4.53;;;4.17;;
29200;SDS011;16244;51.956;12.980;2023-06-05T04:33:23;5.30;;;4.70;;
29200;SDS011;16244;51.956;12.980;2023-06-05T04:35:51;8.63;;;5.47;;
29200;SDS011;16244;51.956;12.980;2023-06-05T04:38:19;11.90;;;4.87;;
29200;SDS011;16244;51.956;12.980;2023-06-05T04:40:47;13.33;;;4.23;;
29200;SDS011;16244;51.956;12.980;2023-06-05T04:43:16;4.90;;;4.30;;
29200;SDS011;16244;51.956;12.980;2023-06-05T04:45:44;6.60;;;4.70;;
29200;SDS011;16244;51.956;12.980;2023-06-05T04:48:14;5.47;;;3.70;;
29200;SDS011;16244;51.956;12.980;2023-06-05T04:50:42;3.77;;;3.47;;
29200;SDS011;16244;51.956;12.980;2023-06-05T04:53:10;6.30;;;3.13;;
29200;SDS011;16244;51.956;12.980;2023-06-05T04:55:38;3.60;;;3.00;;
29200;SDS011;16244;51.956;12.980;2023-06-05T04:58:06;3.73;;;3.53;;
29200;SDS011;16244;51.956;12.980;2023-06-05T05:00:34;4.17;;;3.73;;
29200;SDS011;16244;51.956;12.980;2023-06-05T05:03:02;8.13;;;3.77;;
29200;SDS011;16244;51.956;12.980;2023-06-05T05:05:31;3.23;;;3.03;;
29200;SDS011;16244;51.956;12.980;2023-06-05T05:08:00;2.50;;;2.40;;
29200;SDS011;16244;51.956;12.980;2023-06-05T05:10:28;4.40;;;3.23;;
29200;SDS011;16244;51.956;12.980;2023-06-05T05:12:56;3.70;;;2.30;;
29200;SDS011;16244;51.956;12.980;2023-06-05T05:15:27;3.80;;;1.93;;
29200;SDS011;16244;51.956;12.980;2023-06-05T05:17:55;2.87;;;2.20;;
29200;SDS011;16244;51.956;12.980;2023-06-05T05:20:23;3.90;;;3.13;;
29200;SDS011;16244;51.956;12.980;2023-06-05T05:22:53;3.53;;;2.60;;
29200;SDS011;16244;51.956;12.980;2023-06-05T05:25:21;2.43;;;2.33;;
29200;SDS011;16244;51.956;12.980;2023-06-05T05:27:49;2.90;;;2.70;;
29200;SDS011;16244;51.956;12.980;2023-06-05T05:30:17;1.90;;;1.80;;
29200;SDS011;16244;51.956;12.980;2023-06-05T05:32:45;2.97;;;2.40;;
29200;SDS011;16244;51.956;12.980;2023-06-05T05:35:13;2.60;;;1.73;;
29200;SDS011;16244;51.956;12.980;2023-06-05T05:37:41;1.90;;;1.80;;
29200;SDS011;16244;51.956;12.980;2023-06-05T05:40:11;3.33;;;3.03;;
29200;SDS011;16244;51.956;12.980;2023-06-05T05:42:39;2.73;;;2.50;;
29200;SDS011;16244;51.956;12.980;2023-06-05T05:45:08;3.83;;;3.53;;
29200;SDS011;16244;51.956;12.980;2023-06-05T05:47:36;2.50;;;2.37;;
29200;SDS011;16244;51.956;12.980;2023-06-05T05:50:04;7.77;;;2.17;;
29200;SDS011;16244;51.956;12.980;2023-06-05T05:52:32;3.13;;;2.90;;
29200;SDS011;16244;51.956;12.980;2023-06-05T05:55:00;3.10;;;2.90;;
29200;SDS011;16244;51.956;12.980;2023-06-05T05:57:30;3.33;;;2.70;;
29200;SDS011;16244;51.956;12.980;2023-06-05T05:59:58;4.03;;;2.20;;
29200;SDS011;16244;51.956;12.980;2023-06-05T06:02:26;5.50;;;2.63;;
29200;SDS011;16244;51.956;12.980;2023-06-05T06:04:54;2.00;;;1.90;;
29200;SDS011;16244;51.956;12.980;2023-06-05T06:07:22;1.70;;;1.60;;
29200;SDS011;16244;51.956;12.980;2023-06-05T06:09:51;3.13;;;1.40;;
29200;SDS011;16244;51.956;12.980;2023-06-05T06:12:19;1.30;;;1.30;;
29200;SDS011;16244;51.956;12.980;2023-06-05T06:14:49;1.63;;;1.23;;
29200;SDS011;16244;51.956;12.980;2023-06-05T06:17:17;3.23;;;1.53;;
29200;SDS011;16244;51.956;12.980;2023-06-05T06:19:45;2.43;;;2.03;;
29200;SDS011;16244;51.956;12.980;2023-06-05T06:22:14;2.07;;;1.97;;
29200;SDS011;16244;51.956;12.980;2023-06-05T06:24:42;2.37;;;2.20;;
29200;SDS011;16244;51.956;12.980;2023-06-05T06:27:10;2.60;;;1.90;;
29200;SDS011;16244;51.956;12.980;2023-06-05T06:29:46;2.37;;;2.20;;
29200;SDS011;16244;51.956;12.980;2023-06-05T06:32:15;3.63;;;2.60;;
29200;SDS011;16244;51.956;12.980;2023-06-05T06:34:43;3.03;;;2.27;;
29200;SDS011;16244;51.956;12.980;2023-06-05T06:37:12;4.10;;;1.57;;
29200;SDS011;16244;51.956;12.980;2023-06-05T06:39:40;2.70;;;2.60;;
29200;SDS011;16244;51.956;12.980;2023-06-05T06:42:09;2.47;;;2.30;;
29200;SDS011;16244;51.956;12.980;2023-06-05T06:44:37;2.00;;;1.90;;
29200;SDS011;16244;51.956;12.980;2023-06-05T06:47:05;1.60;;;1.50;;
29200;SDS011;16244;51.956;12.980;2023-06-05T06:49:34;2.20;;;2.10;;
29200;SDS011;16244;51.956;12.980;2023-06-05T06:52:02;6.07;;;4.70;;
29200;SDS011;16244;51.956;12.980;2023-06-05T06:54:30;2.00;;;1.80;;
29200;SDS011;16244;51.956;12.980;2023-06-05T06:56:58;4.00;;;2.07;;
29200;SDS011;16244;51.956;12.980;2023-06-05T06:59:27;2.90;;;2.70;;
29200;SDS011;16244;51.956;12.980;2023-06-05T07:02:07;1.70;;;1.60;;
29200;SDS011;16244;51.956;12.980;2023-06-05T07:04:37;1.83;;;1.73;;
29200;SDS011;16244;51.956;12.980;2023-06-05T07:07:07;1.90;;;1.80;;
29200;SDS011;16244;51.956;12.980;2023-06-05T07:09:36;1.70;;;1.60;;
29200;SDS011;16244;51.956;12.980;2023-06-05T07:12:05;1.70;;;1.60;;
29200;SDS011;16244;51.956;12.980;2023-06-05T07:14:33;1.73;;;1.67;;
29200;SDS011;16244;51.956;12.980;2023-06-05T07:17:01;2.60;;;2.40;;
29200;SDS011;16244;51.956;12.980;2023-06-05T07:19:29;3.90;;;2.80;;
29200;SDS011;16244;51.956;12.980;2023-06-05T07:21:59;2.50;;;1.77;;
29200;SDS011;16244;51.956;12.980;2023-06-05T07:24:28;3.23;;;3.03;;
29200;SDS011;16244;51.956;12.980;2023-06-05T07:26:56;1.70;;;1.60;;
29200;SDS011;16244;51.956;12.980;2023-06-05T07:29:24;1.83;;;1.40;;
29200;SDS011;16244;51.956;12.980;2023-06-05T07:31:53;1.27;;;1.17;;
29200;SDS011;16244;51.956;12.980;2023-06-05T07:34:22;1.47;;;1.37;;
29200;SDS011;16244;51.956;12.980;2023-06-05T07:36:50;2.00;;;1.30;;
29200;SDS011;16244;51.956;12.980;2023-06-05T07:39:20;1.97;;;1.67;;
29200;SDS011;16244;51.956;12.980;2023-06-05T07:41:48;1.43;;;1.00;;
29200;SDS011;16244;51.956;12.980;2023-06-05T07:44:18;1.37;;;1.10;;
29200;SDS011;16244;51.956;12.980;2023-06-05T07:46:48;1.17;;;1.17;;
29200;SDS011;16244;51.956;12.980;2023-06-05T07:49:16;0.80;;;0.80;;
29200;SDS011;16244;51.956;12.980;2023-06-05T07:51:44;0.60;;;0.60;;
29200;SDS011;16244;51.956;12.980;2023-06-05T07:54:14;0.70;;;0.70;;
29200;SDS011;16244;51.956;12.980;2023-06-05T07:56:43;0.70;;;0.70;;
29200;SDS011;16244;51.956;12.980;2023-06-05T07:59:14;0.70;;;0.70;;
29200;SDS011;16244;51.956;12.980;2023-06-05T08:01:43;0.60;;;0.60;;
29200;SDS011;16244;51.956;12.980;2023-06-05T08:04:11;1.10;;;1.10;;
29200;SDS011;16244;51.956;12.980;2023-06-05T08:06:39;0.70;;;0.70;;
29200;SDS011;16244;51.956;12.980;2023-06-05T08:09:07;0.60;;;0.60;;
29200;SDS011;16244;51.956;12.980;2023-06-05T08:11:35;1.20;;;1.10;;
29200;SDS011;16244;51.956;12.980;2023-06-05T08:14:05;0.60;;;0.60;;
29200;SDS011;16244;51.956;12.980;2023-06-05T08:16:34;0.90;;;0.90;;
29200;SDS011;16244;51.956;12.980;2023-06-05T08:19:02;0.90;;;0.80;;
29200;SDS011;16244;51.956;12.980;2023-06-05T08:21:30;0.60;;;0.60;;
29200;SDS011;16244;51.956;12.980;2023-06-05T08:23:58;0.80;;;0.80;;
29200;SDS011;16244;51.956;12.980;2023-06-05T08:26:26;0.60;;;0.60;;
29200;SDS011;16244;51.956;12.980;2023-06-05T08:28:54;0.70;;;0.70;;
29200;SDS011;16244;51.956;12.980;2023-06-05T08:31:23;0.50;;;0.50;;
29200;SDS011;16244;51.956;12.980;2023-06-05T08:33:51;1.02;;;0.60;;
29200;SDS011;16244;51.956;12.980;2023-06-05T08:36:19;0.70;;;0.70;;
29200;SDS011;16244;51.956;12.980;2023-06-05T08:38:47;0.75;;;0.60;;
29200;SDS011;16244;51.956;12.980;2023-06-05T08:41:15;1.25;;;0.80;;
29200;SDS011;16244;51.956;12.980;2023-06-05T08:43:43;0.50;;;0.50;;
29200;SDS011;16244;51.956;12.980;2023-06-05T08:46:11;0.88;;;0.50;;
29200;SDS011;16244;51.956;12.980;2023-06-05T08:48:42;0.60;;;0.60;;
29200;SDS011;16244;51.956;12.980;2023-06-05T08:51:11;0.52;;;0.52;;
29200;SDS011;16244;51.956;12.980;2023-06-05T08:53:39;0.50;;;0.50;;
29200;SDS011;16244;51.956;12.980;2023-06-05T08:56:08;0.63;;;0.63;;
29200;SDS011;16244;51.956;12.980;2023-06-05T08:58:36;0.60;;;0.60;;
29200;SDS011;16244;51.956;12.980;2023-06-05T09:01:05;0.63;;;0.63;;
29200;SDS011;16244;51.956;12.980;2023-06-05T09:03:33;0.57;;;0.57;;
29200;SDS011;16244;51.956;12.980;2023-06-05T09:06:02;1.25;;;0.50;;
29200;SDS011;16244;51.956;12.980;2023-06-05T09:08:30;0.60;;;0.60;;
29200;SDS011;16244;51.956;12.980;2023-06-05T09:13:45;1.35;;;1.25;;
29200;SDS011;16244;51.956;12.980;2023-06-05T09:16:13;0.60;;;0.60;;
29200;SDS011;16244;51.956;12.980;2023-06-05T09:18:51;0.50;;;0.50;;
29200;SDS011;16244;51.956;12.980;2023-06-05T09:21:21;0.40;;;0.40;;
29200;SDS011;16244;51.956;12.980;2023-06-05T09:24:09;2.15;;;0.52;;
29200;SDS011;16244;51.956;12.980;2023-06-05T09:26:48;0.60;;;0.50;;
29200;SDS011;16244;51.956;12.980;2023-06-05T09:29:24;2.95;;;0.65;;
29200;SDS011;16244;51.956;12.980;2023-06-05T09:31:52;0.60;;;0.50;;
29200;SDS011;16244;51.956;12.980;2023-06-05T09:34:21;0.50;;;0.40;;
29200;SDS011;16244;51.956;12.980;2023-06-05T09:36:51;1.13;;;0.50;;
29200;SDS011;16244;51.956;12.980;2023-06-05T09:39:21;0.50;;;0.45;;
29200;SDS011;16244;51.956;12.980;2023-06-05T09:41:50;0.50;;;0.50;;
29200;SDS011;16244;51.956;12.980;2023-06-05T09:44:18;0.50;;;0.50;;
29200;SDS011;16244;51.956;12.980;2023-06-05T09:46:50;0.50;;;0.50;;
29200;SDS011;16244;51.956;12.980;2023-06-05T09:49:19;0.50;;;0.47;;
29200;SDS011;16244;51.956;12.980;2023-06-05T09:51:47;0.60;;;0.60;;
29200;SDS011;16244;51.956;12.980;2023-06-05T09:54:16;0.50;;;0.50;;
29200;SDS011;16244;51.956;12.980;2023-06-05T09:56:46;0.60;;;0.60;;
29200;SDS011;16244;51.956;12.980;2023-06-05T09:59:18;1.05;;;0.60;;
29200;SDS011;16244;51.956;12.980;2023-06-05T10:01:48;0.60;;;0.50;;
29200;SDS011;16244;51.956;12.980;2023-06-05T10:04:18;0.50;;;0.50;;
29200;SDS011;16244;51.956;12.980;2023-06-05T10:06:50;0.50;;;0.50;;
29200;SDS011;16244;51.956;12.980;2023-06-05T10:09:20;0.52;;;0.52;;
29200;SDS011;16244;51.956;12.980;2023-06-05T10:11:48;0.60;;;0.60;;
29200;SDS011;16244;51.956;12.980;2023-06-05T10:14:17;0.50;;;0.50;;
29200;SDS011;16244;51.956;12.980;2023-06-05T10:16:48;0.50;;;0.50;;
29200;SDS011;16244;51.956;12.980;2023-06-05T10:19:17;0.60;;;0.60;;
29200;SDS011;16244;51.956;12.980;2023-06-05T10:21:46;0.60;;;0.60;;
29200;SDS011;16244;51.956;12.980;2023-06-05T10:24:16;0.50;;;0.50;;
29200;SDS011;16244;51.956;12.980;2023-06-05T10:26:53;0.60;;;0.60;;
29200;SDS011;16244;51.956;12.980;2023-06-05T10:29:32;0.50;;;0.50;;
29200;SDS011;16244;51.956;12.980;2023-06-05T10:32:03;0.70;;;0.70;;
29200;SDS011;16244;51.956;12.980;2023-06-05T10:34:35;0.85;;;0.50;;
29200;SDS011;16244;51.956;12.980;2023-06-05T10:37:15;1.77;;;0.50;;
29200;SDS011;16244;51.956;12.980;2023-06-05T10:39:48;0.73;;;0.73;;
29200;SDS011;16244;51.956;12.980;2023-06-05T10:42:24;0.70;;;0.70;;
29200;SDS011;16244;51.956;12.980;2023-06-05T10:44:52;1.60;;;1.50;;
29200;SDS011;16244;51.956;12.980;2023-06-05T10:50:19;0.77;;;0.60;;
29200;SDS011;16244;51.956;12.980;2023-06-05T10:52:51;0.55;;;0.55;;
29200;SDS011;16244;51.956;12.980;2023-06-05T10:55:19;0.60;;;0.60;;
29200;SDS011;16244;51.956;12.980;2023-06-05T10:58:05;0.82;;;0.82;;
29200;SDS011;16244;51.956;12.980;2023-06-05T11:00:34;0.52;;;0.52;;
29200;SDS011;16244;51.956;12.980;2023-06-05T11:03:02;0.60;;;0.60;;
29200;SDS011;16244;51.956;12.980;2023-06-05T11:05:31;0.70;;;0.50;;
29200;SDS011;16244;51.956;12.980;2023-06-05T11:08:12;1.17;;;0.52;;
29200;SDS011;16244;51.956;12.980;2023-06-05T11:18:55;3.53;;;0.63;;
29200;SDS011;16244;51.956;12.980;2023-06-05T11:22:01;0.75;;;0.60;;
29200;SDS011;16244;51.956;12.980;2023-06-05T11:24:29;1.67;;;0.65;;
29200;SDS011;16244;51.956;12.980;2023-06-05T11:26:57;0.82;;;0.82;;
29200;SDS011;16244;51.956;12.980;2023-06-05T11:29:25;0.80;;;0.80;;
29200;SDS011;16244;51.956;12.980;2023-06-05T11:31:55;0.77;;;0.77;;
29200;SDS011;16244;51.956;12.980;2023-06-05T11:34:24;0.50;;;0.50;;
29200;SDS011;16244;51.956;12.980;2023-06-05T11:36:53;0.52;;;0.52;;
29200;SDS011;16244;51.956;12.980;2023-06-05T11:39:21;0.50;;;0.50;;
29200;SDS011;16244;51.956;12.980;2023-06-05T11:41:55;0.60;;;0.60;;
29200;SDS011;16244;51.956;12.980;2023-06-05T11:44:29;0.60;;;0.60;;
29200;SDS011;16244;51.956;12.980;2023-06-05T11:46:58;0.90;;;0.68;;
29200;SDS011;16244;51.956;12.980;2023-06-05T11:49:27;0.60;;;0.57;;
29200;SDS011;16244;51.956;12.980;2023-06-05T11:51:56;5.07;;;2.53;;
29200;SDS011;16244;51.956;12.980;2023-06-05T11:54:25;0.60;;;0.60;;
29200;SDS011;16244;51.956;12.980;2023-06-05T11:56:56;0.50;;;0.50;;
29200;SDS011;16244;51.956;12.980;2023-06-05T11:59:25;0.50;;;0.50;;
29200;SDS011;16244;51.956;12.980;2023-06-05T12:01:53;0.55;;;0.55;;
29200;SDS011;16244;51.956;12.980;2023-06-05T12:04:21;0.55;;;0.55;;
29200;SDS011;16244;51.956;12.980;2023-06-05T12:06:50;1.17;;;0.60;;
29200;SDS011;16244;51.956;12.980;2023-06-05T12:09:19;0.50;;;0.50;;
29200;SDS011;16244;51.956;12.980;2023-06-05T12:11:47;0.68;;;0.68;;
29200;SDS011;16244;51.956;12.980;2023-06-05T12:14:28;0.60;;;0.60;;
29200;SDS011;16244;51.956;12.980;2023-06-05T12:16:56;0.60;;;0.60;;
29200;SDS011;16244;51.956;12.980;2023-06-05T12:19:24;1.58;;;0.60;;
29200;SDS011;16244;51.956;12.980;2023-06-05T12:22:01;0.70;;;0.70;;
29200;SDS011;16244;51.956;12.980;2023-06-05T12:24:29;0.60;;;0.60;;
29200;SDS011;16244;51.956;12.980;2023-06-05T12:26:59;0.80;;;0.80;;
29200;SDS011;16244;51.956;12.980;2023-06-05T12:29:27;0.70;;;0.70;;
29200;SDS011;16244;51.956;12.980;2023-06-05T12:31:56;1.60;;;0.65;;
29200;SDS011;16244;51.956;12.980;2023-06-05T12:34:40;0.80;;;0.80;;
29200;SDS011;16244;51.956;12.980;2023-06-05T12:37:12;1.88;;;0.60;;
29200;SDS011;16244;51.956;12.980;2023-06-05T12:39:48;0.60;;;0.60;;
29200;SDS011;16244;51.956;12.980;2023-06-05T12:42:16;2.78;;;0.80;;
29200;SDS011;16244;51.956;12.980;2023-06-05T12:44:44;0.63;;;0.63;;
29200;SDS011;16244;51.956;12.980;2023-06-05T12:47:12;0.50;;;0.50;;
29200;SDS011;16244;51.956;12.980;2023-06-05T12:49:40;0.60;;;0.60;;
29200;SDS011;16244;51.956;12.980;2023-06-05T12:52:08;0.60;;;0.60;;
29200;SDS011;16244;51.956;12.980;2023-06-05T12:54:37;0.70;;;0.70;;
29200;SDS011;16244;51.956;12.980;2023-06-05T12:57:06;0.60;;;0.60;;
29200;SDS011;16244;51.956;12.980;2023-06-05T12:59:35;0.60;;;0.60;;
29200;SDS011;16244;51.956;12.980;2023-06-05T13:02:03;0.55;;;0.55;;
29200;SDS011;16244;51.956;12.980;2023-06-05T13:04:31;0.60;;;0.60;;
29200;SDS011;16244;51.956;12.980;2023-06-05T13:06:59;0.93;;;0.93;;
29200;SDS011;16244;51.956;12.980;2023-06-05T13:09:27;0.60;;;0.60;;
29200;SDS011;16244;51.956;12.980;2023-06-05T13:11:56;0.85;;;0.85;;
29200;SDS011;16244;51.956;12.980;2023-06-05T13:14:25;0.65;;;0.65;;
29200;SDS011;16244;51.956;12.980;2023-06-05T13:16:53;1.90;;;0.60;;
29200;SDS011;16244;51.956;12.980;2023-06-05T13:19:21;0.60;;;0.60;;
29200;SDS011;16244;51.956;12.980;2023-06-05T13:21:49;0.70;;;0.70;;
29200;SDS011;16244;51.956;12.980;2023-06-05T13:24:17;1.45;;;0.70;;
29200;SDS011;16244;51.956;12.980;2023-06-05T13:26:45;3.75;;;0.68;;
29200;SDS011;16244;51.956;12.980;2023-06-05T13:29:15;0.60;;;0.60;;
29200;SDS011;16244;51.956;12.980;2023-06-05T13:31:42;0.70;;;0.70;;
29200;SDS011;16244;51.956;12.980;2023-06-05T13:34:10;0.85;;;0.85;;
29200;SDS011;16244;51.956;12.980;2023-06-05T13:36:38;1.20;;;0.82;;
29200;SDS011;16244;51.956;12.980;2023-06-05T13:39:06;0.68;;;0.60;;
29200;SDS011;16244;51.956;12.980;2023-06-05T13:41:36;0.50;;;0.50;;
29200;SDS011;16244;51.956;12.980;2023-06-05T13:44:04;0.60;;;0.60;;
29200;SDS011;16244;51.956;12.980;2023-06-05T13:46:33;0.65;;;0.65;;
29200;SDS011;16244;51.956;12.980;2023-06-05T13:49:01;0.93;;;0.93;;
29200;SDS011;16244;51.956;12.980;2023-06-05T13:51:29;0.60;;;0.60;;
29200;SDS011;16244;51.956;12.980;2023-06-05T13:53:57;0.70;;;0.70;;
29200;SDS011;16244;51.956;12.980;2023-06-05T13:56:25;2.65;;;2.45;;
29200;SDS011;16244;51.956;12.980;2023-06-05T13:58:52;0.60;;;0.60;;
29200;SDS011;16244;51.956;12.980;2023-06-05T14:01:21;1.73;;;1.63;;
29200;SDS011;16244;51.956;12.980;2023-06-05T14:03:50;0.68;;;0.68;;
29200;SDS011;16244;51.956;12.980;2023-06-05T14:06:18;0.60;;;0.60;;
29200;SDS011;16244;51.956;12.980;2023-06-05T14:08:47;0.73;;;0.60;;
29200;SDS011;16244;51.956;12.980;2023-06-05T14:11:15;1.10;;;1.10;;
29200;SDS011;16244;51.956;12.980;2023-06-05T14:13:42;0.60;;;0.60;;
29200;SDS011;16244;51.956;12.980;2023-06-05T14:16:10;0.68;;;0.68;;
29200;SDS011;16244;51.956;12.980;2023-06-05T14:18:39;0.60;;;0.60;;
29200;SDS011;16244;51.956;12.980;2023-06-05T14:21:09;0.60;;;0.60;;
29200;SDS011;16244;51.956;12.980;2023-06-05T14:23:36;1.60;;;0.60;;
29200;SDS011;16244;51.956;12.980;2023-06-05T14:26:05;5.18;;;0.70;;
29200;SDS011;16244;51.956;12.980;2023-06-05T14:28:33;0.60;;;0.60;;
29200;SDS011;16244;51.956;12.980;2023-06-05T14:31:01;0.60;;;0.60;;
29200;SDS011;16244;51.956;12.980;2023-06-05T14:33:29;0.60;;;0.60;;
29200;SDS011;16244;51.956;12.980;2023-06-05T14:35:57;0.50;;;0.50;;
29200;SDS011;16244;51.956;12.980;2023-06-05T14:38:27;0.80;;;0.80;;
29200;SDS011;16244;51.956;12.980;2023-06-05T14:40:54;1.20;;;0.80;;
29200;SDS011;16244;51.956;12.980;2023-06-05T14:43:23;0.60;;;0.60;;
29200;SDS011;16244;51.956;12.980;2023-06-05T14:45:52;0.70;;;0.70;;
29200;SDS011;16244;51.956;12.980;2023-06-05T14:48:20;0.60;;;0.60;;
29200;SDS011;16244;51.956;12.980;2023-06-05T14:50:48;1.45;;;0.90;;
29200;SDS011;16244;51.956;12.980;2023-06-05T14:53:16;0.55;;;0.55;;
29200;SDS011;16244;51.956;12.980;2023-06-05T14:55:46;0.60;;;0.60;;
29200;SDS011;16244;51.956;12.980;2023-06-05T14:58:13;0.77;;;0.77;;